sensor_id;sensor_type;location;lat;lon;timestamp;P1;durP1;ratioP1;P2;durP2;ratioP2
38262;SDS011;24054;50.128;19.730;2023-07-13T00:01:53;5.30;;;4.32;;
38262;SDS011;24054;50.128;19.730;2023-07-13T00:04:22;4.33;;;3.60;;
38262;SDS011;24054;50.128;19.730;2023-07-13T00:06:51;4.25;;;3.85;;
38262;SDS011;24054;50.128;19.730;2023-07-13T00:09:18;6.03;;;3.85;;
38262;SDS011;24054;50.128;19.730;2023-07-13T00:11:50;5.07;;;3.88;;
38262;SDS011;24054;50.128;19.730;2023-07-13T00:14:18;5.20;;;4.10;;
38262;SDS011;24054;50.128;19.730;2023-07-13T00:16:45;4.13;;;3.72;;
38262;SDS011;24054;50.128;19.730;2023-07-13T00:19:12;6.55;;;4.28;;
38262;SDS011;24054;50.128;19.730;2023-07-13T00:21:41;5.07;;;3.63;;
38262;SDS011;24054;50.128;19.730;2023-07-13T00:26:37;5.25;;;3.85;;
38262;SDS011;24054;50.128;19.730;2023-07-13T00:29:05;5.18;;;3.80;;
38262;SDS011;24054;50.128;19.730;2023-07-13T00:31:34;4.82;;;3.75;;
38262;SDS011;24054;50.128;19.730;2023-07-13T00:34:01;4.03;;;3.60;;
38262;SDS011;24054;50.128;19.730;2023-07-13T00:36:29;10.25;;;4.28;;
38262;SDS011;24054;50.128;19.730;2023-07-13T00:38:57;4.57;;;3.77;;
38262;SDS011;24054;50.128;19.730;2023-07-13T00:41:24;5.03;;;3.78;;
38262;SDS011;24054;50.128;19.730;2023-07-13T00:43:51;5.82;;;4.57;;
38262;SDS011;24054;50.128;19.730;2023-07-13T00:46:20;5.47;;;4.18;;
38262;SDS011;24054;50.128;19.730;2023-07-13T00:48:51;4.38;;;3.90;;
38262;SDS011;24054;50.128;19.730;2023-07-13T00:51:22;5.80;;;4.47;;
38262;SDS011;24054;50.128;19.730;2023-07-13T00:53:53;6.70;;;4.03;;
38262;SDS011;24054;50.128;19.730;2023-07-13T00:56:23;5.53;;;4.70;;
38262;SDS011;24054;50.128;19.730;2023-07-13T01:01:18;6.90;;;4.63;;
38262;SDS011;24054;50.128;19.730;2023-07-13T01:03:45;6.70;;;4.30;;
38262;SDS011;24054;50.128;19.730;2023-07-13T01:06:12;6.82;;;4.43;;
38262;SDS011;24054;50.128;19.730;2023-07-13T01:08:40;4.87;;;4.20;;
38262;SDS011;24054;50.128;19.730;2023-07-13T01:11:07;5.50;;;4.28;;
38262;SDS011;24054;50.128;19.730;2023-07-13T01:13:35;5.75;;;4.00;;
38262;SDS011;24054;50.128;19.730;2023-07-13T01:16:03;4.65;;;3.63;;
38262;SDS011;24054;50.128;19.730;2023-07-13T01:18:38;5.43;;;4.32;;
38262;SDS011;24054;50.128;19.730;2023-07-13T01:21:06;5.03;;;4.15;;
38262;SDS011;24054;50.128;19.730;2023-07-13T01:23:33;6.75;;;4.03;;
38262;SDS011;24054;50.128;19.730;2023-07-13T01:26:00;5.70;;;4.50;;
38262;SDS011;24054;50.128;19.730;2023-07-13T01:28:28;5.50;;;3.75;;
38262;SDS011;24054;50.128;19.730;2023-07-13T01:30:56;7.03;;;4.23;;
38262;SDS011;24054;50.128;19.730;2023-07-13T01:33:24;4.63;;;3.95;;
38262;SDS011;24054;50.128;19.730;2023-07-13T01:35:52;5.67;;;4.23;;
38262;SDS011;24054;50.128;19.730;2023-07-13T01:38:21;6.05;;;4.07;;
38262;SDS011;24054;50.128;19.730;2023-07-13T01:40:49;5.57;;;4.22;;
38262;SDS011;24054;50.128;19.730;2023-07-13T01:43:16;5.43;;;3.90;;
38262;SDS011;24054;50.128;19.730;2023-07-13T01:45:44;5.13;;;3.95;;
38262;SDS011;24054;50.128;19.730;2023-07-13T01:48:11;5.10;;;3.65;;
38262;SDS011;24054;50.128;19.730;2023-07-13T01:50:39;6.20;;;4.40;;
38262;SDS011;24054;50.128;19.730;2023-07-13T01:53:06;4.10;;;3.67;;
38262;SDS011;24054;50.128;19.730;2023-07-13T01:55:34;5.20;;;3.97;;
38262;SDS011;24054;50.128;19.730;2023-07-13T01:58:02;5.45;;;4.30;;
38262;SDS011;24054;50.128;19.730;2023-07-13T02:00:30;7.05;;;3.90;;
38262;SDS011;24054;50.128;19.730;2023-07-13T02:02:58;4.90;;;4.00;;
38262;SDS011;24054;50.128;19.730;2023-07-13T02:05:25;6.88;;;4.10;;
38262;SDS011;24054;50.128;19.730;2023-07-13T02:07:52;6.88;;;3.80;;
38262;SDS011;24054;50.128;19.730;2023-07-13T02:10:19;4.88;;;3.70;;
38262;SDS011;24054;50.128;19.730;2023-07-13T02:12:48;6.32;;;3.70;;
38262;SDS011;24054;50.128;19.730;2023-07-13T02:15:15;6.50;;;3.97;;
38262;SDS011;24054;50.128;19.730;2023-07-13T02:17:43;5.78;;;4.15;;
38262;SDS011;24054;50.128;19.730;2023-07-13T02:20:10;5.03;;;3.95;;
38262;SDS011;24054;50.128;19.730;2023-07-13T02:22:37;5.13;;;3.78;;
38262;SDS011;24054;50.128;19.730;2023-07-13T02:25:04;5.35;;;4.00;;
38262;SDS011;24054;50.128;19.730;2023-07-13T02:27:31;5.40;;;4.13;;
38262;SDS011;24054;50.128;19.730;2023-07-13T02:30:00;5.22;;;4.03;;
38262;SDS011;24054;50.128;19.730;2023-07-13T02:32:27;4.13;;;3.53;;
38262;SDS011;24054;50.128;19.730;2023-07-13T02:34:54;6.15;;;3.67;;
38262;SDS011;24054;50.128;19.730;2023-07-13T02:37:21;6.00;;;3.97;;
38262;SDS011;24054;50.128;19.730;2023-07-13T02:39:48;5.63;;;3.60;;
38262;SDS011;24054;50.128;19.730;2023-07-13T02:42:15;4.70;;;4.00;;
38262;SDS011;24054;50.128;19.730;2023-07-13T02:44:42;5.53;;;3.80;;
38262;SDS011;24054;50.128;19.730;2023-07-13T02:47:10;4.03;;;3.28;;
38262;SDS011;24054;50.128;19.730;2023-07-13T02:49:38;5.28;;;3.72;;
38262;SDS011;24054;50.128;19.730;2023-07-13T02:52:05;5.35;;;3.90;;
38262;SDS011;24054;50.128;19.730;2023-07-13T02:54:32;4.50;;;3.55;;
38262;SDS011;24054;50.128;19.730;2023-07-13T02:56:59;4.25;;;3.60;;
38262;SDS011;24054;50.128;19.730;2023-07-13T02:59:26;6.63;;;4.22;;
38262;SDS011;24054;50.128;19.730;2023-07-13T03:01:53;5.18;;;4.00;;
38262;SDS011;24054;50.128;19.730;2023-07-13T03:04:23;4.45;;;3.92;;
38262;SDS011;24054;50.128;19.730;2023-07-13T03:06:50;3.85;;;3.45;;
38262;SDS011;24054;50.128;19.730;2023-07-13T03:09:17;5.63;;;3.78;;
38262;SDS011;24054;50.128;19.730;2023-07-13T03:11:44;4.28;;;3.88;;
38262;SDS011;24054;50.128;19.730;2023-07-13T03:14:11;5.75;;;3.78;;
38262;SDS011;24054;50.128;19.730;2023-07-13T03:16:38;5.20;;;3.95;;
38262;SDS011;24054;50.128;19.730;2023-07-13T03:19:05;4.72;;;3.70;;
38262;SDS011;24054;50.128;19.730;2023-07-13T03:21:33;4.30;;;3.75;;
38262;SDS011;24054;50.128;19.730;2023-07-13T03:24:00;4.88;;;3.65;;
38262;SDS011;24054;50.128;19.730;2023-07-13T03:26:27;4.85;;;4.15;;
38262;SDS011;24054;50.128;19.730;2023-07-13T03:28:54;5.25;;;3.85;;
38262;SDS011;24054;50.128;19.730;2023-07-13T03:31:22;4.80;;;3.88;;
38262;SDS011;24054;50.128;19.730;2023-07-13T03:33:51;5.43;;;3.80;;
38262;SDS011;24054;50.128;19.730;2023-07-13T03:36:19;4.20;;;3.53;;
38262;SDS011;24054;50.128;19.730;2023-07-13T03:38:49;6.68;;;4.07;;
38262;SDS011;24054;50.128;19.730;2023-07-13T03:41:18;5.25;;;3.70;;
38262;SDS011;24054;50.128;19.730;2023-07-13T03:43:46;4.28;;;3.58;;
38262;SDS011;24054;50.128;19.730;2023-07-13T03:46:13;4.03;;;3.22;;
38262;SDS011;24054;50.128;19.730;2023-07-13T03:48:41;4.63;;;3.90;;
38262;SDS011;24054;50.128;19.730;2023-07-13T03:51:09;4.28;;;3.60;;
38262;SDS011;24054;50.128;19.730;2023-07-13T03:53:39;5.18;;;3.95;;
38262;SDS011;24054;50.128;19.730;2023-07-13T03:56:09;5.35;;;3.70;;
38262;SDS011;24054;50.128;19.730;2023-07-13T03:58:36;5.57;;;3.70;;
38262;SDS011;24054;50.128;19.730;2023-07-13T04:03:32;4.53;;;3.63;;
38262;SDS011;24054;50.128;19.730;2023-07-13T04:06:00;4.03;;;3.45;;
38262;SDS011;24054;50.128;19.730;2023-07-13T04:08:28;4.28;;;3.45;;
38262;SDS011;24054;50.128;19.730;2023-07-13T04:10:56;4.63;;;3.88;;
38262;SDS011;24054;50.128;19.730;2023-07-13T04:13:25;5.28;;;3.90;;
38262;SDS011;24054;50.128;19.730;2023-07-13T04:15:53;4.35;;;3.45;;
38262;SDS011;24054;50.128;19.730;2023-07-13T04:18:23;4.40;;;3.63;;
38262;SDS011;24054;50.128;19.730;2023-07-13T04:20:50;5.03;;;3.83;;
38262;SDS011;24054;50.128;19.730;2023-07-13T04:23:17;4.85;;;3.70;;
38262;SDS011;24054;50.128;19.730;2023-07-13T04:25:44;4.57;;;3.72;;
38262;SDS011;24054;50.128;19.730;2023-07-13T04:28:13;4.32;;;3.55;;
38262;SDS011;24054;50.128;19.730;2023-07-13T04:30:42;4.22;;;3.30;;
38262;SDS011;24054;50.128;19.730;2023-07-13T04:33:09;3.92;;;3.53;;
38262;SDS011;24054;50.128;19.730;2023-07-13T04:35:36;4.78;;;3.85;;
38262;SDS011;24054;50.128;19.730;2023-07-13T04:38:03;4.03;;;3.63;;
38262;SDS011;24054;50.128;19.730;2023-07-13T04:40:30;4.97;;;3.53;;
38262;SDS011;24054;50.128;19.730;2023-07-13T04:42:58;4.00;;;3.60;;
38262;SDS011;24054;50.128;19.730;2023-07-13T04:45:25;4.13;;;3.40;;
38262;SDS011;24054;50.128;19.730;2023-07-13T04:47:53;4.65;;;3.38;;
38262;SDS011;24054;50.128;19.730;2023-07-13T04:50:20;3.40;;;2.90;;
38262;SDS011;24054;50.128;19.730;2023-07-13T04:52:48;4.28;;;3.75;;
38262;SDS011;24054;50.128;19.730;2023-07-13T04:55:16;5.53;;;3.78;;
38262;SDS011;24054;50.128;19.730;2023-07-13T04:57:44;4.10;;;3.40;;
38262;SDS011;24054;50.128;19.730;2023-07-13T05:00:11;3.90;;;3.42;;
38262;SDS011;24054;50.128;19.730;2023-07-13T05:02:42;3.88;;;3.22;;
38262;SDS011;24054;50.128;19.730;2023-07-13T05:05:11;4.38;;;3.55;;
38262;SDS011;24054;50.128;19.730;2023-07-13T05:07:39;3.40;;;3.10;;
38262;SDS011;24054;50.128;19.730;2023-07-13T05:10:06;4.93;;;3.72;;
38262;SDS011;24054;50.128;19.730;2023-07-13T05:12:34;3.20;;;2.90;;
38262;SDS011;24054;50.128;19.730;2023-07-13T05:15:01;4.53;;;3.25;;
38262;SDS011;24054;50.128;19.730;2023-07-13T05:17:28;4.53;;;3.47;;
38262;SDS011;24054;50.128;19.730;2023-07-13T05:19:55;3.83;;;3.40;;
38262;SDS011;24054;50.128;19.730;2023-07-13T05:22:24;4.55;;;4.07;;
38262;SDS011;24054;50.128;19.730;2023-07-13T05:24:51;3.65;;;3.00;;
38262;SDS011;24054;50.128;19.730;2023-07-13T05:27:20;3.55;;;3.22;;
38262;SDS011;24054;50.128;19.730;2023-07-13T05:29:48;3.42;;;3.13;;
38262;SDS011;24054;50.128;19.730;2023-07-13T05:32:17;3.50;;;3.20;;
38262;SDS011;24054;50.128;19.730;2023-07-13T05:34:44;5.80;;;4.40;;
38262;SDS011;24054;50.128;19.730;2023-07-13T05:37:11;4.90;;;4.00;;
38262;SDS011;24054;50.128;19.730;2023-07-13T05:39:40;4.47;;;3.80;;
38262;SDS011;24054;50.128;19.730;2023-07-13T05:42:07;4.65;;;3.80;;
38262;SDS011;24054;50.128;19.730;2023-07-13T05:44:33;4.75;;;3.40;;
38262;SDS011;24054;50.128;19.730;2023-07-13T05:47:00;7.22;;;4.78;;
38262;SDS011;24054;50.128;19.730;2023-07-13T05:49:27;7.05;;;3.95;;
38262;SDS011;24054;50.128;19.730;2023-07-13T05:52:01;5.33;;;3.60;;
38262;SDS011;24054;50.128;19.730;2023-07-13T05:54:28;6.55;;;3.75;;
38262;SDS011;24054;50.128;19.730;2023-07-13T05:56:56;6.38;;;3.70;;
38262;SDS011;24054;50.128;19.730;2023-07-13T05:59:23;6.63;;;4.03;;
38262;SDS011;24054;50.128;19.730;2023-07-13T06:01:50;7.45;;;4.13;;
38262;SDS011;24054;50.128;19.730;2023-07-13T06:04:19;6.35;;;3.25;;
38262;SDS011;24054;50.128;19.730;2023-07-13T06:06:46;6.32;;;3.53;;
38262;SDS011;24054;50.128;19.730;2023-07-13T06:09:13;8.30;;;3.97;;
38262;SDS011;24054;50.128;19.730;2023-07-13T06:11:42;7.95;;;3.90;;
38262;SDS011;24054;50.128;19.730;2023-07-13T06:14:11;13.68;;;5.18;;
38262;SDS011;24054;50.128;19.730;2023-07-13T06:16:39;7.55;;;3.88;;
38262;SDS011;24054;50.128;19.730;2023-07-13T06:19:06;7.47;;;4.55;;
38262;SDS011;24054;50.128;19.730;2023-07-13T06:21:33;7.78;;;4.13;;
38262;SDS011;24054;50.128;19.730;2023-07-13T06:24:00;13.50;;;4.90;;
38262;SDS011;24054;50.128;19.730;2023-07-13T06:26:27;7.43;;;4.78;;
38262;SDS011;24054;50.128;19.730;2023-07-13T06:28:54;5.68;;;4.13;;
38262;SDS011;24054;50.128;19.730;2023-07-13T06:31:23;8.80;;;4.70;;
38262;SDS011;24054;50.128;19.730;2023-07-13T06:33:50;8.70;;;5.07;;
38262;SDS011;24054;50.128;19.730;2023-07-13T06:36:17;7.38;;;4.30;;
38262;SDS011;24054;50.128;19.730;2023-07-13T06:38:44;9.00;;;4.57;;
38262;SDS011;24054;50.128;19.730;2023-07-13T06:41:12;7.25;;;4.65;;
38262;SDS011;24054;50.128;19.730;2023-07-13T06:43:39;6.90;;;4.65;;
38262;SDS011;24054;50.128;19.730;2023-07-13T06:46:06;10.73;;;5.22;;
38262;SDS011;24054;50.128;19.730;2023-07-13T06:48:35;5.43;;;4.82;;
38262;SDS011;24054;50.128;19.730;2023-07-13T06:51:02;6.35;;;4.63;;
38262;SDS011;24054;50.128;19.730;2023-07-13T06:53:30;8.35;;;5.03;;
38262;SDS011;24054;50.128;19.730;2023-07-13T06:55:57;11.65;;;5.82;;
38262;SDS011;24054;50.128;19.730;2023-07-13T06:58:24;8.80;;;4.57;;
38262;SDS011;24054;50.128;19.730;2023-07-13T07:00:52;9.65;;;4.57;;
38262;SDS011;24054;50.128;19.730;2023-07-13T07:03:19;6.03;;;4.60;;
38262;SDS011;24054;50.128;19.730;2023-07-13T07:05:47;5.00;;;4.47;;
38262;SDS011;24054;50.128;19.730;2023-07-13T07:08:14;5.40;;;4.72;;
38262;SDS011;24054;50.128;19.730;2023-07-13T07:10:41;6.32;;;4.55;;
38262;SDS011;24054;50.128;19.730;2023-07-13T07:13:09;4.68;;;4.03;;
38262;SDS011;24054;50.128;19.730;2023-07-13T07:15:36;5.95;;;4.30;;
38262;SDS011;24054;50.128;19.730;2023-07-13T07:18:03;7.03;;;4.40;;
38262;SDS011;24054;50.128;19.730;2023-07-13T07:20:30;5.20;;;4.40;;
38262;SDS011;24054;50.128;19.730;2023-07-13T07:22:59;7.28;;;4.18;;
38262;SDS011;24054;50.128;19.730;2023-07-13T07:25:26;7.15;;;4.63;;
38262;SDS011;24054;50.128;19.730;2023-07-13T07:27:56;7.28;;;4.30;;
38262;SDS011;24054;50.128;19.730;2023-07-13T07:30:24;7.15;;;4.38;;
38262;SDS011;24054;50.128;19.730;2023-07-13T07:32:51;8.75;;;5.05;;
38262;SDS011;24054;50.128;19.730;2023-07-13T07:35:18;5.78;;;4.55;;
38262;SDS011;24054;50.128;19.730;2023-07-13T07:37:45;5.90;;;4.72;;
38262;SDS011;24054;50.128;19.730;2023-07-13T07:40:14;7.35;;;4.28;;
38262;SDS011;24054;50.128;19.730;2023-07-13T07:45:08;4.72;;;4.20;;
38262;SDS011;24054;50.128;19.730;2023-07-13T07:47:36;5.40;;;4.40;;
38262;SDS011;24054;50.128;19.730;2023-07-13T07:50:04;4.55;;;3.63;;
38262;SDS011;24054;50.128;19.730;2023-07-13T07:52:31;5.47;;;4.53;;
38262;SDS011;24054;50.128;19.730;2023-07-13T07:55:00;9.85;;;5.70;;
38262;SDS011;24054;50.128;19.730;2023-07-13T07:57:29;14.35;;;5.80;;
38262;SDS011;24054;50.128;19.730;2023-07-13T08:02:23;16.25;;;6.60;;
38262;SDS011;24054;50.128;19.730;2023-07-13T08:04:51;14.95;;;6.72;;
38262;SDS011;24054;50.128;19.730;2023-07-13T08:07:40;15.65;;;6.45;;
38262;SDS011;24054;50.128;19.730;2023-07-13T08:10:55;10.57;;;5.57;;
38262;SDS011;24054;50.128;19.730;2023-07-13T08:20:47;11.48;;;5.50;;
38262;SDS011;24054;50.128;19.730;2023-07-13T08:23:44;12.95;;;6.38;;
38262;SDS011;24054;50.128;19.730;2023-07-13T08:26:34;10.65;;;6.13;;
38262;SDS011;24054;50.128;19.730;2023-07-13T08:32:44;11.18;;;5.43;;
38262;SDS011;24054;50.128;19.730;2023-07-13T08:42:46;12.65;;;5.75;;
38262;SDS011;24054;50.128;19.730;2023-07-13T08:48:25;7.80;;;4.47;;
38262;SDS011;24054;50.128;19.730;2023-07-13T08:51:02;8.20;;;4.93;;
38262;SDS011;24054;50.128;19.730;2023-07-13T08:53:54;7.32;;;4.55;;
38262;SDS011;24054;50.128;19.730;2023-07-13T08:56:28;8.50;;;4.40;;
38262;SDS011;24054;50.128;19.730;2023-07-13T08:59:09;9.13;;;4.78;;
38262;SDS011;24054;50.128;19.730;2023-07-13T09:01:57;8.40;;;5.50;;
38262;SDS011;24054;50.128;19.730;2023-07-13T09:04:42;8.27;;;4.72;;
38262;SDS011;24054;50.128;19.730;2023-07-13T09:07:14;6.07;;;4.20;;
38262;SDS011;24054;50.128;19.730;2023-07-13T09:09:53;6.05;;;3.83;;
38262;SDS011;24054;50.128;19.730;2023-07-13T09:12:50;8.75;;;4.50;;
38262;SDS011;24054;50.128;19.730;2023-07-13T09:15:59;8.52;;;4.57;;
38262;SDS011;24054;50.128;19.730;2023-07-13T09:18:27;12.55;;;5.78;;
38262;SDS011;24054;50.128;19.730;2023-07-13T09:20:59;8.52;;;4.40;;
38262;SDS011;24054;50.128;19.730;2023-07-13T09:23:30;6.32;;;3.97;;
38262;SDS011;24054;50.128;19.730;2023-07-13T09:25:59;7.03;;;4.50;;
38262;SDS011;24054;50.128;19.730;2023-07-13T09:28:33;8.52;;;5.18;;
38262;SDS011;24054;50.128;19.730;2023-07-13T09:31:07;8.80;;;4.63;;
38262;SDS011;24054;50.128;19.730;2023-07-13T09:33:39;9.20;;;5.38;;
38262;SDS011;24054;50.128;19.730;2023-07-13T09:36:16;7.00;;;4.72;;
38262;SDS011;24054;50.128;19.730;2023-07-13T09:38:45;7.70;;;4.57;;
38262;SDS011;24054;50.128;19.730;2023-07-13T09:41:17;8.32;;;4.10;;
38262;SDS011;24054;50.128;19.730;2023-07-13T09:44:06;10.82;;;6.22;;
38262;SDS011;24054;50.128;19.730;2023-07-13T09:46:38;9.88;;;5.55;;
38262;SDS011;24054;50.128;19.730;2023-07-13T09:49:09;11.07;;;5.72;;
38262;SDS011;24054;50.128;19.730;2023-07-13T09:51:37;10.98;;;5.68;;
38262;SDS011;24054;50.128;19.730;2023-07-13T09:54:04;11.23;;;6.00;;
38262;SDS011;24054;50.128;19.730;2023-07-13T09:56:31;9.80;;;5.20;;
38262;SDS011;24054;50.128;19.730;2023-07-13T09:58:59;11.32;;;5.35;;
38262;SDS011;24054;50.128;19.730;2023-07-13T10:01:33;13.27;;;5.40;;
38262;SDS011;24054;50.128;19.730;2023-07-13T10:04:03;9.90;;;5.30;;
38262;SDS011;24054;50.128;19.730;2023-07-13T10:06:39;8.52;;;5.50;;
38262;SDS011;24054;50.128;19.730;2023-07-13T10:09:08;8.80;;;5.03;;
38262;SDS011;24054;50.128;19.730;2023-07-13T10:11:36;10.60;;;5.43;;
38262;SDS011;24054;50.128;19.730;2023-07-13T10:14:10;10.95;;;5.55;;
38262;SDS011;24054;50.128;19.730;2023-07-13T10:16:41;10.35;;;5.18;;
38262;SDS011;24054;50.128;19.730;2023-07-13T10:19:12;9.68;;;4.70;;
38262;SDS011;24054;50.128;19.730;2023-07-13T10:21:47;7.78;;;4.63;;
38262;SDS011;24054;50.128;19.730;2023-07-13T10:24:20;6.93;;;4.55;;
38262;SDS011;24054;50.128;19.730;2023-07-13T10:26:51;4.90;;;4.10;;
38262;SDS011;24054;50.128;19.730;2023-07-13T10:29:22;9.00;;;4.47;;
38262;SDS011;24054;50.128;19.730;2023-07-13T10:31:52;5.70;;;4.53;;
38262;SDS011;24054;50.128;19.730;2023-07-13T10:34:20;6.45;;;4.35;;
38262;SDS011;24054;50.128;19.730;2023-07-13T10:36:48;7.82;;;4.95;;
38262;SDS011;24054;50.128;19.730;2023-07-13T10:39:17;7.35;;;4.20;;
38262;SDS011;24054;50.128;19.730;2023-07-13T10:41:50;5.10;;;4.20;;
38262;SDS011;24054;50.128;19.730;2023-07-13T10:44:21;7.00;;;4.55;;
38262;SDS011;24054;50.128;19.730;2023-07-13T10:46:51;7.55;;;4.20;;
38262;SDS011;24054;50.128;19.730;2023-07-13T10:49:26;7.32;;;5.05;;
38262;SDS011;24054;50.128;19.730;2023-07-13T10:51:55;5.00;;;4.03;;
38262;SDS011;24054;50.128;19.730;2023-07-13T10:54:26;7.65;;;4.30;;
38262;SDS011;24054;50.128;19.730;2023-07-13T10:57:07;7.32;;;4.40;;
38262;SDS011;24054;50.128;19.730;2023-07-13T10:59:41;8.73;;;4.63;;
38262;SDS011;24054;50.128;19.730;2023-07-13T11:02:12;8.05;;;4.95;;
38262;SDS011;24054;50.128;19.730;2023-07-13T11:04:53;7.72;;;5.30;;
38262;SDS011;24054;50.128;19.730;2023-07-13T11:07:24;6.65;;;4.43;;
38262;SDS011;24054;50.128;19.730;2023-07-13T11:09:53;7.85;;;5.32;;
38262;SDS011;24054;50.128;19.730;2023-07-13T11:12:50;7.63;;;4.68;;
38262;SDS011;24054;50.128;19.730;2023-07-13T11:15:30;7.32;;;5.10;;
38262;SDS011;24054;50.128;19.730;2023-07-13T11:18:02;8.00;;;4.93;;
38262;SDS011;24054;50.128;19.730;2023-07-13T11:20:33;8.30;;;5.38;;
38262;SDS011;24054;50.128;19.730;2023-07-13T11:23:09;7.72;;;4.65;;
38262;SDS011;24054;50.128;19.730;2023-07-13T11:26:01;6.50;;;4.30;;
38262;SDS011;24054;50.128;19.730;2023-07-13T11:28:30;7.50;;;4.70;;
38262;SDS011;24054;50.128;19.730;2023-07-13T11:31:00;4.55;;;3.97;;
38262;SDS011;24054;50.128;19.730;2023-07-13T11:33:31;4.95;;;4.25;;
38262;SDS011;24054;50.128;19.730;2023-07-13T11:36:37;5.10;;;3.72;;
38262;SDS011;24054;50.128;19.730;2023-07-13T11:39:12;5.95;;;3.80;;
38262;SDS011;24054;50.128;19.730;2023-07-13T11:41:49;5.25;;;2.88;;
38262;SDS011;24054;50.128;19.730;2023-07-13T11:44:18;5.05;;;3.20;;
38262;SDS011;24054;50.128;19.730;2023-07-13T11:46:47;5.18;;;3.50;;
38262;SDS011;24054;50.128;19.730;2023-07-13T11:49:16;5.63;;;2.78;;
38262;SDS011;24054;50.128;19.730;2023-07-13T11:51:45;4.35;;;2.70;;
38262;SDS011;24054;50.128;19.730;2023-07-13T11:54:21;2.80;;;1.70;;
38262;SDS011;24054;50.128;19.730;2023-07-13T11:56:51;2.72;;;1.70;;
38262;SDS011;24054;50.128;19.730;2023-07-13T11:59:19;2.42;;;1.70;;
38262;SDS011;24054;50.128;19.730;2023-07-13T12:01:49;3.17;;;1.50;;
38262;SDS011;24054;50.128;19.730;2023-07-13T12:04:20;4.88;;;2.17;;
38262;SDS011;24054;50.128;19.730;2023-07-13T12:06:55;2.83;;;1.65;;
38262;SDS011;24054;50.128;19.730;2023-07-13T12:09:25;2.47;;;1.70;;
38262;SDS011;24054;50.128;19.730;2023-07-13T12:11:53;3.13;;;1.92;;
38262;SDS011;24054;50.128;19.730;2023-07-13T12:14:22;2.33;;;1.70;;
38262;SDS011;24054;50.128;19.730;2023-07-13T12:16:51;5.30;;;2.00;;
38262;SDS011;24054;50.128;19.730;2023-07-13T12:19:20;2.30;;;1.50;;
38262;SDS011;24054;50.128;19.730;2023-07-13T12:21:49;2.70;;;1.92;;
38262;SDS011;24054;50.128;19.730;2023-07-13T12:24:23;3.53;;;1.83;;
38262;SDS011;24054;50.128;19.730;2023-07-13T12:26:52;3.25;;;2.20;;
38262;SDS011;24054;50.128;19.730;2023-07-13T12:29:21;1.73;;;1.63;;
38262;SDS011;24054;50.128;19.730;2023-07-13T12:31:48;3.28;;;1.90;;
38262;SDS011;24054;50.128;19.730;2023-07-13T12:34:18;1.88;;;1.52;;
38262;SDS011;24054;50.128;19.730;2023-07-13T12:36:48;2.72;;;2.17;;
38262;SDS011;24054;50.128;19.730;2023-07-13T12:39:18;2.53;;;1.92;;
38262;SDS011;24054;50.128;19.730;2023-07-13T12:41:48;2.17;;;1.60;;
38262;SDS011;24054;50.128;19.730;2023-07-13T12:44:17;2.45;;;2.00;;
38262;SDS011;24054;50.128;19.730;2023-07-13T12:46:56;2.35;;;1.70;;
38262;SDS011;24054;50.128;19.730;2023-07-13T12:49:27;3.80;;;1.75;;
38262;SDS011;24054;50.128;19.730;2023-07-13T12:52:00;2.78;;;2.08;;
38262;SDS011;24054;50.128;19.730;2023-07-13T12:54:29;3.97;;;1.85;;
38262;SDS011;24054;50.128;19.730;2023-07-13T12:56:58;2.33;;;1.77;;
38262;SDS011;24054;50.128;19.730;2023-07-13T12:59:29;3.97;;;1.50;;
38262;SDS011;24054;50.128;19.730;2023-07-13T13:02:01;4.95;;;2.17;;
38262;SDS011;24054;50.128;19.730;2023-07-13T13:04:38;2.70;;;1.88;;
38262;SDS011;24054;50.128;19.730;2023-07-13T13:07:08;2.22;;;1.70;;
38262;SDS011;24054;50.128;19.730;2023-07-13T13:09:36;3.67;;;1.83;;
38262;SDS011;24054;50.128;19.730;2023-07-13T13:12:05;2.42;;;1.77;;
38262;SDS011;24054;50.128;19.730;2023-07-13T13:14:33;3.30;;;1.95;;
38262;SDS011;24054;50.128;19.730;2023-07-13T13:17:01;2.40;;;1.73;;
38262;SDS011;24054;50.128;19.730;2023-07-13T13:19:29;3.00;;;1.38;;
38262;SDS011;24054;50.128;19.730;2023-07-13T13:21:56;1.40;;;1.00;;
38262;SDS011;24054;50.128;19.730;2023-07-13T13:24:26;2.03;;;1.15;;
38262;SDS011;24054;50.128;19.730;2023-07-13T13:26:53;2.15;;;1.30;;
38262;SDS011;24054;50.128;19.730;2023-07-13T13:29:24;2.58;;;1.20;;
38262;SDS011;24054;50.128;19.730;2023-07-13T13:31:51;2.75;;;1.05;;
38262;SDS011;24054;50.128;19.730;2023-07-13T13:34:19;2.47;;;1.40;;
38262;SDS011;24054;50.128;19.730;2023-07-13T13:36:49;2.10;;;1.42;;
38262;SDS011;24054;50.128;19.730;2023-07-13T13:41:45;3.47;;;1.55;;
38262;SDS011;24054;50.128;19.730;2023-07-13T13:44:13;1.48;;;1.27;;
38262;SDS011;24054;50.128;19.730;2023-07-13T13:46:43;2.40;;;1.50;;
38262;SDS011;24054;50.128;19.730;2023-07-13T13:49:13;3.25;;;1.40;;
38262;SDS011;24054;50.128;19.730;2023-07-13T13:51:42;2.63;;;1.73;;
38262;SDS011;24054;50.128;19.730;2023-07-13T13:54:10;2.20;;;1.30;;
38262;SDS011;24054;50.128;19.730;2023-07-13T13:56:42;2.78;;;1.88;;
38262;SDS011;24054;50.128;19.730;2023-07-13T13:59:10;2.60;;;1.60;;
38262;SDS011;24054;50.128;19.730;2023-07-13T14:01:37;2.50;;;1.63;;
38262;SDS011;24054;50.128;19.730;2023-07-13T14:04:06;2.13;;;1.52;;
38262;SDS011;24054;50.128;19.730;2023-07-13T14:06:39;4.07;;;1.95;;
38262;SDS011;24054;50.128;19.730;2023-07-13T14:09:08;2.25;;;1.55;;
38262;SDS011;24054;50.128;19.730;2023-07-13T14:11:37;3.35;;;1.70;;
38262;SDS011;24054;50.128;19.730;2023-07-13T14:14:08;5.45;;;2.53;;
38262;SDS011;24054;50.128;19.730;2023-07-13T14:16:39;4.38;;;1.90;;
38262;SDS011;24054;50.128;19.730;2023-07-13T14:19:09;2.95;;;1.55;;
38262;SDS011;24054;50.128;19.730;2023-07-13T14:21:39;3.70;;;1.95;;
38262;SDS011;24054;50.128;19.730;2023-07-13T14:24:07;3.20;;;1.58;;
38262;SDS011;24054;50.128;19.730;2023-07-13T14:26:38;2.47;;;1.80;;
38262;SDS011;24054;50.128;19.730;2023-07-13T14:29:11;3.25;;;2.00;;
38262;SDS011;24054;50.128;19.730;2023-07-13T14:31:42;3.72;;;1.90;;
38262;SDS011;24054;50.128;19.730;2023-07-13T14:34:11;2.20;;;2.00;;
38262;SDS011;24054;50.128;19.730;2023-07-13T14:36:40;2.50;;;1.83;;
38262;SDS011;24054;50.128;19.730;2023-07-13T14:39:11;4.07;;;2.17;;
38262;SDS011;24054;50.128;19.730;2023-07-13T14:41:40;2.85;;;1.90;;
38262;SDS011;24054;50.128;19.730;2023-07-13T14:44:10;2.30;;;1.75;;
38262;SDS011;24054;50.128;19.730;2023-07-13T14:46:38;3.58;;;1.92;;
38262;SDS011;24054;50.128;19.730;2023-07-13T14:49:06;2.90;;;1.60;;
38262;SDS011;24054;50.128;19.730;2023-07-13T14:51:41;2.90;;;1.73;;
38262;SDS011;24054;50.128;19.730;2023-07-13T14:54:08;2.67;;;1.92;;
38262;SDS011;24054;50.128;19.730;2023-07-13T14:59:03;2.13;;;1.80;;
38262;SDS011;24054;50.128;19.730;2023-07-13T15:01:32;3.88;;;1.80;;
38262;SDS011;24054;50.128;19.730;2023-07-13T15:04:00;3.15;;;1.80;;
38262;SDS011;24054;50.128;19.730;2023-07-13T15:06:29;3.10;;;2.10;;
38262;SDS011;24054;50.128;19.730;2023-07-13T15:08:58;3.42;;;2.00;;
38262;SDS011;24054;50.128;19.730;2023-07-13T15:11:25;3.92;;;1.90;;
38262;SDS011;24054;50.128;19.730;2023-07-13T15:13:52;2.05;;;1.90;;
38262;SDS011;24054;50.128;19.730;2023-07-13T15:16:21;3.45;;;1.90;;
38262;SDS011;24054;50.128;19.730;2023-07-13T15:18:50;3.05;;;2.47;;
38262;SDS011;24054;50.128;19.730;2023-07-13T15:21:19;4.18;;;2.55;;
38262;SDS011;24054;50.128;19.730;2023-07-13T15:23:50;3.08;;;2.30;;
38262;SDS011;24054;50.128;19.730;2023-07-13T15:26:20;3.20;;;2.60;;
38262;SDS011;24054;50.128;19.730;2023-07-13T15:28:47;4.30;;;3.28;;